Terminal Aerodrome Forecast
Issued by NWS Louisville, KY

Home | Current Version | Previous Version | Text Only | Print | Product List | Glossary On
Versions: 1 2 3 4 5 6 7 8 9 10 11 12 13
170
FTUS43 KLMK 162320
TAFBWG
TAF
KBWG 162320Z 1700/1724 18004KT P6SM BKN200
     FM171400 17007KT P6SM -SHRA OVC050
     FM172000 21005KT P6SM -SHRA OVC027=

USA.gov is the U.S. government's official web portal to all federal, state and local government web resources and services.